Strona główna
METAR-TAF:

METAR-TAF

Lotnisko :

Le Luc, Francja

Szerokość geograficzna: 43-23N, Długość geograficzna: 006-23E, wysokość: 80 m

Aktualna obserwacja pogody

Raport powstał 15 minut temu, godzina 01:00 UTC
Cisza
Temperatura 3°C
Wilgotność 75%
Ciśnienie 1022 hPa
Widzialność 10 km lub więcej

METAR: LFMC 050100Z AUTO 00000KT 9999 ////// 03/M01 Q1022

czas: 03:15 (01:15 UTC)


TAF: brakujący

Obserwacja i prognoza pogody dla ponad 4000 lotnisk (raport METAR i TAF).

Dostępne stacje oznaczono żółtymi i czerwonymi punktami na mapie.

Najedź kursorem aby zobaczyć nazwę stacji.

Kliknij aby zobaczyć obserwacje i prognozy pogody.

Aby zmienić mapę: kliknij na zielony przycisk z czarnym krzyżykiem, aby powiększyć; na zielony przycisk z myślnikiem, aby pomniejszyć; na zielone strzałki, aby przejść do map sąsiednich.


METAR-TAF: